Time;durP1;ratioP1;P1;durP2;ratioP2;P2;SDS_P1;SDS_P2;PMS_P1;PMS_P2;Temp;Humidity;BMP_temperature;BMP_pressure;BME280_temperature;BME280_humidity;BME280_pressure;Samples;Min_cycle;Max_cycle;Signal;HPM_P1;HPM_P2
2023/11/30 00:00:58;;;;;;;;;;;;;;;-1.65;97.17;98371.53;5067266;28;20022;-77
2023/11/30 00:03:24;;;;;;;;;;;;;;;-1.67;97.00;98363.72;5067333;28;19929;-77
2023/11/30 00:05:51;;;;;;;;;;;;;;;-1.71;97.10;98366.03;5066014;28;20392;-78
2023/11/30 00:08:17;;;;;;;;;;;;;;;-1.71;97.40;98363.34;5065441;28;19928;-80
2023/11/30 00:10:43;;;;;;;;;;;;;;;-1.67;97.43;98358.38;5066497;28;19928;-80
2023/11/30 00:13:08;;;;;;;;;;;;;;;-1.65;97.61;98358.13;5061502;28;19979;-81
2023/11/30 00:15:35;;;;;;;;;;;;;;;-1.65;97.38;98345.53;5061964;28;19932;-81
2023/11/30 00:18:01;;;;;;;;;;;;;;;-1.65;97.51;98337.50;5063581;28;19928;-80
2023/11/30 00:20:26;;;;;;;;;;;;;;;-1.65;97.25;98347.41;5068247;28;20559;-81
2023/11/30 00:22:54;;;;;;;;;;;;;;;-1.63;97.15;98342.66;5067601;28;19951;-81
2023/11/30 00:25:20;;;;;;;;;;;;;;;-1.61;97.18;98345.91;5063971;28;19935;-81
2023/11/30 00:27:45;;;;;;;;;;;;;;;-1.61;97.21;98343.22;5063539;28;20332;-81
2023/11/30 00:30:12;;;;;;;;;;;;;;;-1.65;97.48;98350.91;5064594;28;20022;-81
2023/11/30 00:32:37;;;;;;;;;;;;;;;-1.65;97.45;98347.41;5065218;28;20560;-81
2023/11/30 00:35:04;;;;;;;;;;;;;;;-1.64;97.53;98332.94;5066571;28;19974;-76
2023/11/30 00:37:30;;;;;;;;;;;;;;;-1.62;97.57;98333.56;5064296;28;19974;-76
2023/11/30 00:39:58;;;;;;;;;;;;;;;-1.62;97.21;98344.28;5061949;28;19932;-77
2023/11/30 00:42:25;;;;;;;;;;;;;;;-1.64;97.21;98332.94;5045868;28;19928;-77
2023/11/30 00:44:51;;;;;;;;;;;;;;;-1.64;97.10;98339.13;5061413;28;19954;-77
2023/11/30 00:47:18;;;;;;;;;;;;;;;-1.63;97.19;98321.19;5063619;28;19935;-77
2023/11/30 00:49:44;;;;;;;;;;;;;;;-1.64;96.71;98325.72;5065229;28;19928;-84
2023/11/30 00:52:10;;;;;;;;;;;;;;;-1.61;96.77;98329.81;5082359;28;19928;-83
2023/11/30 00:54:35;;;;;;;;;;;;;;;-1.60;96.72;98315.38;5065715;28;19979;-84
2023/11/30 00:57:03;;;;;;;;;;;;;;;-1.59;96.19;98322.38;5048913;28;19934;-85
2023/11/30 00:59:29;;;;;;;;;;;;;;;-1.58;96.24;98307.91;5081561;28;19941;-86
2023/11/30 01:01:55;;;;;;;;;;;;;;;-1.52;96.04;98301.59;5080550;28;19928;-85
2023/11/30 01:04:21;;;;;;;;;;;;;;;-1.51;96.12;98289.84;5077013;28;19928;-86
2023/11/30 01:06:48;;;;;;;;;;;;;;;-1.54;95.82;98292.97;5081065;28;19934;-84
2023/11/30 01:09:14;;;;;;;;;;;;;;;-1.66;96.08;98276.91;5077769;28;19932;-85
2023/11/30 01:11:43;;;;;;;;;;;;;;;-1.60;96.12;98289.38;5073936;28;19935;-78
2023/11/30 01:14:11;;;;;;;;;;;;;;;-1.66;96.23;98292.97;5062485;28;19929;-78
2023/11/30 01:16:37;;;;;;;;;;;;;;;-1.65;96.53;98289.25;5048936;28;19928;-85
2023/11/30 01:19:03;;;;;;;;;;;;;;;-1.62;96.50;98302.19;5076895;28;19928;-84
2023/11/30 01:21:28;;;;;;;;;;;;;;;-1.60;96.39;98285.88;5076668;28;19944;-85
2023/11/30 01:23:54;;;;;;;;;;;;;;;-1.60;96.43;98286.69;5061644;28;19929;-85
2023/11/30 01:26:20;;;;;;;;;;;;;;;-1.58;96.47;98270.38;5039659;28;19929;-85
2023/11/30 01:28:48;;;;;;;;;;;;;;;-1.57;96.48;98274.69;5076258;28;19935;-85
2023/11/30 01:31:16;;;;;;;;;;;;;;;-1.58;96.44;98286.47;5077316;28;19933;-85
2023/11/30 01:33:42;;;;;;;;;;;;;;;-1.59;96.67;98276.78;5076612;28;19933;-86
2023/11/30 01:36:09;;;;;;;;;;;;;;;-1.61;96.73;98284.25;5042110;28;20035;-85
2023/11/30 01:38:34;;;;;;;;;;;;;;;-1.72;96.34;98269.78;5061769;28;19972;-84
2023/11/30 01:41:00;;;;;;;;;;;;;;;-1.69;96.52;98277.38;5076518;28;19963;-84
2023/11/30 01:43:27;;;;;;;;;;;;;;;-1.69;96.51;98274.69;5063044;28;19939;-85
2023/11/30 01:45:53;;;;;;;;;;;;;;;-1.70;96.65;98278.41;5059116;28;19928;-83
2023/11/30 01:48:20;;;;;;;;;;;;;;;-1.71;96.75;98274.91;5062894;28;19952;-85
2023/11/30 01:50:47;;;;;;;;;;;;;;;-1.70;96.77;98262.34;5071050;28;19929;-77
2023/11/30 01:53:14;;;;;;;;;;;;;;;-1.69;96.54;98255.94;5044117;28;19936;-77
2023/11/30 01:55:41;;;;;;;;;;;;;;;-1.69;96.33;98263.13;5052781;28;20387;-77
2023/11/30 01:58:08;;;;;;;;;;;;;;;-1.68;96.33;98259.41;5049016;28;20324;-83
2023/11/30 02:00:36;;;;;;;;;;;;;;;-1.68;96.42;98260.25;5070131;28;19929;-82
2023/11/30 02:03:03;;;;;;;;;;;;;;;-1.67;96.11;98253.00;5068053;28;19928;-82
2023/11/30 02:05:31;;;;;;;;;;;;;;;-1.66;96.25;98258.13;5066978;28;19936;-83
2023/11/30 02:07:58;;;;;;;;;;;;;;;-1.65;96.04;98261.63;5064674;28;19974;-82
2023/11/30 02:10:24;;;;;;;;;;;;;;;-1.65;96.16;98259.78;5064143;28;19928;-77
2023/11/30 02:12:50;;;;;;;;;;;;;;;-1.62;96.04;98258.50;5064530;28;20035;-77
2023/11/30 02:15:16;;;;;;;;;;;;;;;-1.64;95.99;98248.00;5063818;28;19929;-77
2023/11/30 02:17:44;;;;;;;;;;;;;;;-1.66;96.07;98252.78;5065079;28;19928;-77
2023/11/30 02:20:11;;;;;;;;;;;;;;;-1.69;96.21;98244.38;5028847;28;20027;-76
2023/11/30 02:22:38;;;;;;;;;;;;;;;-1.69;96.13;98260.47;5062652;28;19978;-77
2023/11/30 02:25:05;;;;;;;;;;;;;;;-1.70;96.13;98254.28;5062800;28;19928;-77
2023/11/30 02:27:31;;;;;;;;;;;;;;;-1.69;96.33;98260.47;5067604;28;19929;-77
2023/11/30 02:29:57;;;;;;;;;;;;;;;-1.68;96.28;98262.91;5044881;28;19983;-78
2023/11/30 02:32:23;;;;;;;;;;;;;;;-1.69;96.54;98266.66;5049787;28;19967;-83
2023/11/30 02:34:49;;;;;;;;;;;;;;;-1.67;96.54;98261.88;5066635;28;19929;-77
2023/11/30 02:37:15;;;;;;;;;;;;;;;-1.66;96.32;98255.47;5068644;28;20027;-82
2023/11/30 02:39:42;;;;;;;;;;;;;;;-1.67;96.31;98248.47;5071283;28;19952;-84
2023/11/30 02:42:09;;;;;;;;;;;;;;;-1.65;96.55;98245.53;5080888;28;19940;-84
2023/11/30 02:44:35;;;;;;;;;;;;;;;-1.65;96.47;98246.38;5077316;28;20397;-83
2023/11/30 02:47:02;;;;;;;;;;;;;;;-1.64;96.36;98250.69;5066642;28;19935;-76
2023/11/30 02:49:29;;;;;;;;;;;;;;;-1.61;96.49;98254.75;5061985;28;19933;-77
2023/11/30 02:51:56;;;;;;;;;;;;;;;-1.60;96.40;98240.31;5047553;28;19975;-77
2023/11/30 02:54:23;;;;;;;;;;;;;;;-1.59;96.24;98258.81;5062011;28;19928;-76
2023/11/30 02:56:51;;;;;;;;;;;;;;;-1.56;95.98;98249.50;5062325;28;19943;-77
2023/11/30 02:59:17;;;;;;;;;;;;;;;-1.55;96.21;98253.03;5044439;28;19928;-78
2023/11/30 03:01:43;;;;;;;;;;;;;;;-1.54;96.22;98251.97;5063557;28;19942;-77
2023/11/30 03:04:10;;;;;;;;;;;;;;;-1.52;96.21;98239.94;5063114;28;19974;-76
2023/11/30 03:06:35;;;;;;;;;;;;;;;-1.54;96.17;98242.03;5067524;28;19928;-77
2023/11/30 03:09:01;;;;;;;;;;;;;;;-1.53;96.13;98246.34;5060501;28;19936;-77
2023/11/30 03:11:28;;;;;;;;;;;;;;;-1.54;95.73;98246.59;5063597;28;19990;-76
2023/11/30 03:13:55;;;;;;;;;;;;;;;-1.54;95.86;98241.25;5063337;28;20364;-76
2023/11/30 03:16:24;;;;;;;;;;;;;;;-1.54;95.75;98242.03;5066024;28;19935;-77
2023/11/30 03:18:50;;;;;;;;;;;;;;;-1.53;95.64;98240.19;5064382;28;19936;-76
2023/11/30 03:21:16;;;;;;;;;;;;;;;-1.53;95.50;98238.31;5065192;28;19928;-77
2023/11/30 03:23:42;;;;;;;;;;;;;;;-1.50;95.75;98232.47;5063465;28;19921;-77
2023/11/30 03:26:08;;;;;;;;;;;;;;;-1.48;95.62;98235.75;5063568;28;19935;-76
2023/11/30 03:28:34;;;;;;;;;;;;;;;-1.47;95.73;98241.94;5047543;28;19928;-76
2023/11/30 03:31:02;;;;;;;;;;;;;;;-1.49;95.53;98239.47;5060129;28;19928;-76
2023/11/30 03:33:27;;;;;;;;;;;;;;;-1.48;95.70;98235.75;5048932;28;20355;-83
2023/11/30 03:35:58;;;;;;;;;;;;;;;-1.45;95.72;98242.50;5062935;28;20027;-76
2023/11/30 03:38:26;;;;;;;;;;;;;;;-1.43;95.80;98241.22;5061455;28;19936;-76
2023/11/30 03:40:52;;;;;;;;;;;;;;;-1.40;96.00;98236.44;5061900;28;19928;-75
2023/11/30 03:43:17;;;;;;;;;;;;;;;-1.41;96.00;98238.28;5043114;28;20159;-75
2023/11/30 03:45:48;;;;;;;;;;;;;;;-1.42;96.01;98236.66;5066612;28;20457;-75
2023/11/30 03:48:16;;;;;;;;;;;;;;;-1.45;96.15;98246.00;5048816;28;19955;-77
2023/11/30 03:50:42;;;;;;;;;;;;;;;-1.47;96.49;98237.41;5065324;28;19979;-76
2023/11/30 03:53:08;;;;;;;;;;;;;;;-1.45;96.79;98237.13;5067130;28;19932;-76
2023/11/30 03:55:34;;;;;;;;;;;;;;;-1.43;96.92;98237.72;5066822;28;19940;-76
2023/11/30 03:57:59;;;;;;;;;;;;;;;-1.41;97.11;98246.34;5063350;28;19974;-76
2023/11/30 04:00:25;;;;;;;;;;;;;;;-1.41;97.24;98238.28;5067508;28;19928;-76
2023/11/30 04:02:51;;;;;;;;;;;;;;;-1.40;97.69;98237.28;5048659;28;19982;-75
2023/11/30 04:05:19;;;;;;;;;;;;;;;-1.40;97.89;98231.91;5066377;28;19928;-76
2023/11/30 04:07:48;;;;;;;;;;;;;;;-1.38;98.09;98229.81;5047074;28;19974;-76
2023/11/30 04:10:14;;;;;;;;;;;;;;;-1.39;98.46;98228.19;5066200;28;19936;-80
2023/11/30 04:12:40;;;;;;;;;;;;;;;-1.39;98.61;98227.34;5065697;28;19939;-80
2023/11/30 04:15:07;;;;;;;;;;;;;;;-1.40;98.68;98233.75;5063222;28;19939;-81
2023/11/30 04:17:34;;;;;;;;;;;;;;;-1.41;99.17;98232.94;5065667;28;19935;-80
2023/11/30 04:20:01;;;;;;;;;;;;;;;-1.45;99.13;98221.06;5066993;28;19934;-80
2023/11/30 04:22:29;;;;;;;;;;;;;;;-1.36;99.22;98234.91;5066185;28;19928;-76
2023/11/30 04:24:54;;;;;;;;;;;;;;;-1.37;99.63;98238.66;5046270;28;19928;-76
2023/11/30 04:27:20;;;;;;;;;;;;;;;-1.36;99.60;98235.75;5066597;28;19935;-80
2023/11/30 04:29:46;;;;;;;;;;;;;;;-1.37;100.00;98228.75;5067645;28;19928;-81
2023/11/30 04:32:12;;;;;;;;;;;;;;;-1.37;100.00;98230.59;5069687;28;19936;-81
2023/11/30 04:34:39;;;;;;;;;;;;;;;-1.38;100.00;98237.84;5068758;28;20233;-80
2023/11/30 04:37:06;;;;;;;;;;;;;;;-1.39;100.00;98230.03;5044276;28;19970;-80
2023/11/30 04:39:34;;;;;;;;;;;;;;;-1.37;100.00;98223.38;5027406;28;19957;-79
2023/11/30 04:42:01;;;;;;;;;;;;;;;-1.35;100.00;98215.94;5058026;28;19928;-76
2023/11/30 04:44:28;;;;;;;;;;;;;;;-1.31;100.00;98221.63;5055072;28;20382;-75
2023/11/30 04:46:54;;;;;;;;;;;;;;;-1.29;100.00;98225.69;5059127;28;19928;-79
2023/11/30 04:49:20;;;;;;;;;;;;;;;-1.26;100.00;98226.28;5059743;28;20400;-78
2023/11/30 04:51:46;;;;;;;;;;;;;;;-1.26;100.00;98220.91;5058075;28;19929;-78
2023/11/30 04:54:12;;;;;;;;;;;;;;;-1.24;100.00;98221.50;5051845;28;20291;-79
2023/11/30 04:56:40;;;;;;;;;;;;;;;-1.20;100.00;98214.63;5050834;28;20373;-79
2023/11/30 04:59:06;;;;;;;;;;;;;;;-1.16;100.00;98226.50;5057997;28;19928;-78
2023/11/30 05:01:31;;;;;;;;;;;;;;;-1.13;100.00;98225.22;5057585;28;20476;-78
2023/11/30 05:03:57;;;;;;;;;;;;;;;-1.10;100.00;98222.84;5059651;28;20301;-78
2023/11/30 05:06:23;;;;;;;;;;;;;;;-1.06;100.00;98224.03;5022154;28;20325;-78
2023/11/30 05:08:50;;;;;;;;;;;;;;;-1.04;100.00;98213.88;5061319;28;19990;-78
2023/11/30 05:11:15;;;;;;;;;;;;;;;-1.01;100.00;98212.59;5065150;28;20361;-79
2023/11/30 05:13:43;;;;;;;;;;;;;;;-0.97;100.00;98226.31;5063299;28;19928;-80
2023/11/30 05:16:09;;;;;;;;;;;;;;;-0.97;100.00;98227.16;5046432;28;19978;-78
2023/11/30 05:18:35;;;;;;;;;;;;;;;-0.93;100.00;98227.50;5062926;28;19928;-79
2023/11/30 05:21:02;;;;;;;;;;;;;;;-0.91;100.00;98223.50;5066884;28;20318;-78
2023/11/30 05:23:27;;;;;;;;;;;;;;;-0.88;100.00;98225.72;5032548;28;19934;-77
2023/11/30 05:25:53;;;;;;;;;;;;;;;-0.86;100.00;98225.47;5066708;28;19928;-77
2023/11/30 05:28:19;;;;;;;;;;;;;;;-0.78;100.00;98235.03;5047829;28;19978;-77
2023/11/30 05:30:53;;;;;;;;;;;;;;;-0.72;100.00;98234.88;5061291;28;19928;-77
2023/11/30 05:33:21;;;;;;;;;;;;;;;-0.65;100.00;98232.06;5059115;28;20438;-79
2023/11/30 05:35:47;;;;;;;;;;;;;;;-0.60;99.90;98239.41;5061071;28;19928;-79
2023/11/30 05:38:13;;;;;;;;;;;;;;;-0.54;100.00;98224.22;5060180;28;19935;-77
2023/11/30 05:40:39;;;;;;;;;;;;;;;-0.51;99.64;98226.41;5058003;28;19928;-77
2023/11/30 05:43:05;;;;;;;;;;;;;;;-0.49;99.68;98235.84;5064154;28;19928;-77
2023/11/30 05:45:31;;;;;;;;;;;;;;;-0.48;99.41;98236.66;5061381;28;20059;-76
2023/11/30 05:47:58;;;;;;;;;;;;;;;-0.47;99.26;98240.97;5061201;28;19928;-77
2023/11/30 05:50:24;;;;;;;;;;;;;;;-0.45;99.07;98239.69;5061169;28;20180;-76
2023/11/30 05:52:50;;;;;;;;;;;;;;;-0.42;99.03;98238.38;5052730;28;19932;-77
2023/11/30 05:55:16;;;;;;;;;;;;;;;-0.43;99.11;98234.88;5063972;28;19974;-76
2023/11/30 05:57:43;;;;;;;;;;;;;;;-0.41;98.80;98240.00;5045685;28;20008;-77
2023/11/30 06:00:12;;;;;;;;;;;;;;;-0.39;98.81;98243.28;5045281;28;20396;-77
2023/11/30 06:02:39;;;;;;;;;;;;;;;-0.39;98.82;98243.28;5030161;28;20042;-77
2023/11/30 06:05:07;;;;;;;;;;;;;;;-0.39;98.46;98245.16;5054448;28;19986;-77
2023/11/30 06:07:33;;;;;;;;;;;;;;;-0.38;98.44;98238.72;5059084;28;19955;-79
2023/11/30 06:09:59;;;;;;;;;;;;;;;-0.38;98.61;98239.53;5046673;28;19932;-79
2023/11/30 06:12:25;;;;;;;;;;;;;;;-0.34;98.60;98247.91;5043091;28;19932;-77
2023/11/30 06:14:51;;;;;;;;;;;;;;;-0.33;98.27;98252.22;5049709;28;19928;-77
2023/11/30 06:17:17;;;;;;;;;;;;;;;-0.31;98.06;98244.75;5047716;28;20684;-77
2023/11/30 06:19:43;;;;;;;;;;;;;;;-0.34;97.78;98242.53;5042729;28;19928;-77
2023/11/30 06:22:10;;;;;;;;;;;;;;;-0.35;97.85;98241.75;5030532;28;19928;-77
2023/11/30 06:24:36;;;;;;;;;;;;;;;-0.31;97.98;98252.81;5029903;28;19963;-77
2023/11/30 06:27:02;;;;;;;;;;;;;;;-0.31;97.66;98261.69;5050119;28;20381;-78
2023/11/30 06:29:31;;;;;;;;;;;;;;;-0.27;97.77;98255.81;5053317;28;19940;-78
2023/11/30 06:31:59;;;;;;;;;;;;;;;-0.30;97.90;98255.25;5035220;28;19928;-79
2023/11/30 06:34:25;;;;;;;;;;;;;;;-0.26;97.97;98254.75;5051494;28;19928;-81
2023/11/30 06:36:51;;;;;;;;;;;;;;;-0.21;97.69;98257.56;5035757;28;20389;-78
2023/11/30 06:39:19;;;;;;;;;;;;;;;-0.20;97.40;98262.66;5066079;28;19993;-78
2023/11/30 06:41:46;;;;;;;;;;;;;;;-0.17;97.08;98272.13;5045331;28;19928;-79
2023/11/30 06:44:13;;;;;;;;;;;;;;;-0.19;96.96;98267.00;5048111;28;19928;-83
2023/11/30 06:46:44;;;;;;;;;;;;;;;-0.18;96.73;98270.50;5068801;28;19928;-80
2023/11/30 06:49:13;;;;;;;;;;;;;;;-0.17;96.73;98272.94;5063634;28;19967;-79
2023/11/30 06:51:39;;;;;;;;;;;;;;;-0.23;96.55;98265.84;5067948;28;19935;-78
2023/11/30 06:54:04;;;;;;;;;;;;;;;-0.21;96.42;98274.47;5082151;28;19928;-80
2023/11/30 06:56:32;;;;;;;;;;;;;;;-0.26;96.53;98263.66;5043182;28;19936;-80
2023/11/30 06:58:58;;;;;;;;;;;;;;;-0.16;96.45;98282.66;5068952;28;19956;-84
2023/11/30 07:01:25;;;;;;;;;;;;;;;-0.15;96.08;98284.28;5036684;28;19950;-83
2023/11/30 07:03:51;;;;;;;;;;;;;;;-0.15;96.41;98278.91;5067782;28;19928;-84
2023/11/30 07:06:17;;;;;;;;;;;;;;;-0.12;96.07;98280.28;5068766;28;19928;-82
2023/11/30 07:08:43;;;;;;;;;;;;;;;-0.16;96.02;98287.19;5063703;28;20387;-82
2023/11/30 07:11:10;;;;;;;;;;;;;;;-0.16;96.14;98282.66;5067465;28;19928;-82
2023/11/30 07:13:38;;;;;;;;;;;;;;;-0.12;96.12;98290.22;5066219;28;20027;-81
2023/11/30 07:16:04;;;;;;;;;;;;;;;-0.13;95.65;98294.75;5065683;28;20017;-79
2023/11/30 07:18:30;;;;;;;;;;;;;;;-0.11;95.41;98294.53;5067055;28;19939;-78
2023/11/30 07:20:56;;;;;;;;;;;;;;;-0.15;95.20;98294.19;5065553;28;19964;-78
2023/11/30 07:23:22;;;;;;;;;;;;;;;-0.13;95.21;98293.97;5065551;28;19929;-82
2023/11/30 07:25:48;;;;;;;;;;;;;;;-0.16;95.13;98293.41;5068121;28;19928;-83
2023/11/30 07:28:14;;;;;;;;;;;;;;;-0.18;94.85;98298.16;5064878;28;19994;-74
2023/11/30 07:30:42;;;;;;;;;;;;;;;-0.23;94.67;98294.59;5035079;28;19971;-74
2023/11/30 07:33:07;;;;;;;;;;;;;;;-0.29;94.65;98294.50;5066126;28;20010;-75
2023/11/30 07:35:35;;;;;;;;;;;;;;;-0.27;94.94;98296.13;5067100;28;19955;-75
2023/11/30 07:38:01;;;;;;;;;;;;;;;-0.27;94.83;98312.22;5067215;28;19934;-75
2023/11/30 07:40:27;;;;;;;;;;;;;;;-0.27;94.65;98310.38;5064930;28;20439;-75
2023/11/30 07:42:53;;;;;;;;;;;;;;;-0.26;94.38;98314.69;5063781;28;20399;-74
2023/11/30 07:45:18;;;;;;;;;;;;;;;-0.26;93.26;98295.88;5067673;28;20023;-75
2023/11/30 07:47:46;;;;;;;;;;;;;;;-0.32;92.77;98310.25;5051263;28;20398;-75
2023/11/30 07:50:15;;;;;;;;;;;;;;;-0.35;92.18;98316.13;5051666;28;20020;-75
2023/11/30 07:52:41;;;;;;;;;;;;;;;-0.47;91.03;98353.78;5067905;28;19995;-75
2023/11/30 07:55:07;;;;;;;;;;;;;;;-0.60;91.16;98342.22;5067052;28;20033;-75
2023/11/30 07:57:33;;;;;;;;;;;;;;;-0.70;91.23;98349.28;5066672;28;19928;-74
2023/11/30 07:59:59;;;;;;;;;;;;;;;-0.81;90.85;98348.25;5065524;28;20418;-75
2023/11/30 08:02:25;;;;;;;;;;;;;;;-0.90;90.73;98343.22;5063397;28;19928;-74
2023/11/30 08:04:52;;;;;;;;;;;;;;;-0.91;90.81;98354.22;5063692;28;19928;-74
2023/11/30 08:07:18;;;;;;;;;;;;;;;-0.97;90.09;98342.53;5049620;28;19928;-74
2023/11/30 08:09:44;;;;;;;;;;;;;;;-1.05;89.74;98350.94;5065782;28;20396;-75
2023/11/30 08:12:10;;;;;;;;;;;;;;;-1.12;89.80;98345.69;5045598;28;19940;-74
2023/11/30 08:14:36;;;;;;;;;;;;;;;-1.14;89.70;98350.47;5063366;28;20451;-74
2023/11/30 08:17:04;;;;;;;;;;;;;;;-1.15;88.58;98356.88;5067523;28;19974;-74
2023/11/30 08:19:32;;;;;;;;;;;;;;;-1.21;88.51;98350.59;5067037;28;19943;-75
2023/11/30 08:22:00;;;;;;;;;;;;;;;-1.21;88.18;98357.84;5047664;28;19982;-74
2023/11/30 08:24:25;;;;;;;;;;;;;;;-1.25;88.09;98351.28;5046660;28;19928;-74
2023/11/30 08:26:51;;;;;;;;;;;;;;;-1.31;88.42;98369.94;5069071;28;20027;-74
2023/11/30 08:29:17;;;;;;;;;;;;;;;-1.29;88.64;98361.69;5066316;28;19932;-75
2023/11/30 08:31:43;;;;;;;;;;;;;;;-1.33;88.59;98358.63;5065487;28;20361;-74
2023/11/30 08:34:09;;;;;;;;;;;;;;;-1.37;87.96;98360.16;5066789;28;20010;-74
2023/11/30 08:36:35;;;;;;;;;;;;;;;-1.37;88.57;98354.78;5066298;28;19928;-75
2023/11/30 08:39:03;;;;;;;;;;;;;;;-1.35;88.50;98349.19;5048741;28;19932;-74
2023/11/30 08:41:30;;;;;;;;;;;;;;;-1.33;88.32;98344.41;5063629;28;19974;-74
2023/11/30 08:43:56;;;;;;;;;;;;;;;-1.33;88.56;98358.63;5064150;28;19928;-74
2023/11/30 08:46:22;;;;;;;;;;;;;;;-1.31;88.41;98345.81;5068413;28;19928;-74
2023/11/30 08:48:48;;;;;;;;;;;;;;;-1.25;88.33;98337.88;5068071;28;20399;-74
2023/11/30 08:51:15;;;;;;;;;;;;;;;-1.24;87.54;98347.56;5065300;28;19981;-74
2023/11/30 08:53:41;;;;;;;;;;;;;;;-1.26;86.85;98363.06;5064567;28;19966;-74
2023/11/30 08:56:10;;;;;;;;;;;;;;;-1.27;86.33;98353.38;5065781;28;19971;-74
2023/11/30 08:58:36;;;;;;;;;;;;;;;-1.31;85.89;98345.00;5062347;28;19928;-74
2023/11/30 09:01:03;;;;;;;;;;;;;;;-1.33;85.70;98371.22;5063547;28;19935;-75
2023/11/30 09:03:29;;;;;;;;;;;;;;;-1.38;85.17;98358.53;5065544;28;19934;-74
2023/11/30 09:05:55;;;;;;;;;;;;;;;-1.40;85.80;98346.38;5062649;28;20031;-74
2023/11/30 09:08:21;;;;;;;;;;;;;;;-1.42;86.69;98357.34;5064112;28;20022;-74
2023/11/30 09:10:47;;;;;;;;;;;;;;;-1.39;86.73;98358.75;5063311;28;19998;-74
2023/11/30 09:13:14;;;;;;;;;;;;;;;-1.40;86.56;98365.16;5065775;28;20391;-74
2023/11/30 09:15:40;;;;;;;;;;;;;;;-1.39;86.52;98356.06;5047097;28;20415;-74
2023/11/30 09:18:07;;;;;;;;;;;;;;;-1.37;86.63;98348.59;5067167;28;20035;-74
2023/11/30 09:20:34;;;;;;;;;;;;;;;-1.34;86.78;98346.28;5064700;28;19951;-74
2023/11/30 09:23:00;;;;;;;;;;;;;;;-1.27;86.07;98361.44;5064835;28;19928;-74
2023/11/30 09:25:26;;;;;;;;;;;;;;;-1.30;85.81;98358.16;5069903;28;19929;-73
2023/11/30 09:27:52;;;;;;;;;;;;;;;-1.29;85.56;98356.31;5068150;28;19950;-72
2023/11/30 09:30:20;;;;;;;;;;;;;;;-1.36;85.49;98360.97;5065865;28;19928;-74
2023/11/30 09:32:46;;;;;;;;;;;;;;;-1.38;86.82;98358.53;5048291;28;19935;-73
2023/11/30 09:35:11;;;;;;;;;;;;;;;-1.44;86.72;98356.75;5066547;28;19932;-74
2023/11/30 09:37:37;;;;;;;;;;;;;;;-1.34;86.95;98370.41;5065891;28;19928;-73
2023/11/30 09:40:08;;;;;;;;;;;;;;;-1.36;86.18;98361.78;5067983;28;19928;-73
2023/11/30 09:42:34;;;;;;;;;;;;;;;-1.37;86.84;98372.75;5046189;28;20437;-73
2023/11/30 09:45:03;;;;;;;;;;;;;;;-1.36;86.84;98371.69;5066074;28;20323;-72
2023/11/30 09:47:34;;;;;;;;;;;;;;;-1.44;86.76;98372.84;5045010;28;19933;-72
2023/11/30 09:50:02;;;;;;;;;;;;;;;-1.54;86.35;98402.91;5058413;28;19978;-72
2023/11/30 09:52:29;;;;;;;;;;;;;;;-1.69;85.15;98398.00;5063777;28;19933;-72
2023/11/30 09:54:57;;;;;;;;;;;;;;;-1.82;85.83;98404.34;5064755;28;19936;-73
2023/11/30 09:57:23;;;;;;;;;;;;;;;-1.90;88.88;98393.97;5048351;28;19929;-73
2023/11/30 09:59:49;;;;;;;;;;;;;;;-1.89;88.95;98388.34;5063192;28;19929;-73
2023/11/30 10:02:15;;;;;;;;;;;;;;;-1.84;85.26;98406.44;5062337;28;20003;-73
2023/11/30 10:04:42;;;;;;;;;;;;;;;-1.87;84.10;98423.81;5066978;28;19940;-73
2023/11/30 10:07:08;;;;;;;;;;;;;;;-1.84;83.73;98406.44;5065312;28;20022;-73
2023/11/30 10:09:37;;;;;;;;;;;;;;;-1.87;82.50;98401.53;5063366;28;20031;-73
2023/11/30 10:12:04;;;;;;;;;;;;;;;-1.87;81.94;98422.97;5062218;28;19942;-73
2023/11/30 10:14:31;;;;;;;;;;;;;;;-1.82;80.04;98390.13;5027063;28;20038;-73
2023/11/30 10:16:59;;;;;;;;;;;;;;;-1.88;79.31;98402.56;5043534;28;20383;-73
2023/11/30 10:19:27;;;;;;;;;;;;;;;-1.86;78.52;98417.41;5061250;28;21555;-73
2023/11/30 10:21:56;;;;;;;;;;;;;;;-1.87;76.66;98409.56;5046730;28;19981;-73
2023/11/30 10:24:23;;;;;;;;;;;;;;;-1.87;76.04;98407.72;5062822;28;20395;-71
2023/11/30 10:26:50;;;;;;;;;;;;;;;-1.84;74.77;98413.66;5056858;28;19929;-72
2023/11/30 10:29:18;;;;;;;;;;;;;;;-1.76;75.16;98402.63;5062151;28;20031;-72
2023/11/30 10:31:46;;;;;;;;;;;;;;;-1.71;75.31;98400.88;5059254;28;19928;-72
2023/11/30 10:34:13;;;;;;;;;;;;;;;-1.66;73.99;98410.94;5064686;28;20355;-72
2023/11/30 10:36:40;;;;;;;;;;;;;;;-1.76;73.89;98407.97;5061665;28;19932;-72
2023/11/30 10:39:13;;;;;;;;;;;;;;;-1.84;74.85;98405.63;5044750;28;19929;-71
2023/11/30 10:41:45;;;;;;;;;;;;;;;-1.84;75.31;98411.00;5055877;28;19932;-71
2023/11/30 10:44:12;;;;;;;;;;;;;;;-1.94;75.43;98412.34;5063891;28;19976;-71
2023/11/30 10:46:40;;;;;;;;;;;;;;;-2.00;75.13;98424.78;5060725;28;19936;-72
2023/11/30 10:49:07;;;;;;;;;;;;;;;-2.09;75.40;98426.16;5060847;28;19935;-72
2023/11/30 10:51:34;;;;;;;;;;;;;;;-2.21;75.45;98468.91;5043063;28;20398;-72
2023/11/30 10:54:04;;;;;;;;;;;;;;;-2.38;76.30;98444.63;5059780;28;20443;-72
2023/11/30 10:56:32;;;;;;;;;;;;;;;-2.48;76.88;98429.06;5065485;28;19998;-71
2023/11/30 10:58:58;;;;;;;;;;;;;;;-2.55;77.47;98440.91;5062655;28;20490;-72
2023/11/30 11:01:26;;;;;;;;;;;;;;;-2.60;77.96;98420.16;5065800;28;19928;-72
2023/11/30 11:03:55;;;;;;;;;;;;;;;-2.66;78.53;98442.44;5063948;28;19943;-73
2023/11/30 11:06:23;;;;;;;;;;;;;;;-2.72;79.37;98447.63;5062139;28;19968;-73
2023/11/30 11:08:59;;;;;;;;;;;;;;;-2.83;78.99;98439.53;5029522;28;19928;-73
2023/11/30 11:11:27;;;;;;;;;;;;;;;-2.92;78.82;98444.34;5049192;28;19936;-73
2023/11/30 11:13:55;;;;;;;;;;;;;;;-3.01;77.89;98449.97;5060942;28;19935;-73
2023/11/30 11:16:31;;;;;;;;;;;;;;;-3.05;78.69;98446.09;5066566;28;19968;-73
2023/11/30 11:19:00;;;;;;;;;;;;;;;-3.04;78.56;98457.63;5077760;28;19935;-74
2023/11/30 11:21:27;;;;;;;;;;;;;;;-3.07;78.90;98458.88;5060294;28;19990;-73
2023/11/30 11:24:00;;;;;;;;;;;;;;;-3.03;79.09;98448.56;5048838;28;20380;-73
2023/11/30 11:26:26;;;;;;;;;;;;;;;-3.03;79.10;98462.72;5065847;28;20346;-73
2023/11/30 11:28:55;;;;;;;;;;;;;;;-3.07;78.26;98453.53;5066899;28;19935;-73
2023/11/30 11:31:22;;;;;;;;;;;;;;;-3.10;78.32;98461.16;5060018;28;19979;-74
2023/11/30 11:33:49;;;;;;;;;;;;;;;-3.11;78.36;98465.69;5067144;28;20401;-73
2023/11/30 11:36:15;;;;;;;;;;;;;;;-3.03;77.57;98478.78;5032310;28;19928;-73
2023/11/30 11:38:42;;;;;;;;;;;;;;;-3.02;76.62;98479.63;5062774;28;19958;-73
2023/11/30 11:41:08;;;;;;;;;;;;;;;-2.99;76.31;98479.16;5065376;28;20038;-73
2023/11/30 11:43:34;;;;;;;;;;;;;;;-3.03;74.58;98504.72;5048406;28;19970;-73
2023/11/30 11:46:02;;;;;;;;;;;;;;;-3.17;74.48;98494.13;5067710;28;20035;-73
2023/11/30 11:48:27;;;;;;;;;;;;;;;-3.26;75.45;98500.75;5063891;28;19928;-73
2023/11/30 11:50:57;;;;;;;;;;;;;;;-3.35;76.70;98494.84;5066235;28;19935;-72
2023/11/30 11:53:22;;;;;;;;;;;;;;;-3.42;78.31;98507.47;5066020;28;19982;-73
2023/11/30 11:55:49;;;;;;;;;;;;;;;-3.46;79.70;98496.38;5064142;28;19928;-73
2023/11/30 11:58:15;;;;;;;;;;;;;;;-3.53;80.47;98529.53;5062782;28;19932;-73
2023/11/30 12:00:51;;;;;;;;;;;;;;;-3.57;80.19;98497.88;5064058;28;20318;-73
2023/11/30 12:03:20;;;;;;;;;;;;;;;-3.62;79.51;98513.72;5060834;28;19959;-73
2023/11/30 12:05:46;;;;;;;;;;;;;;;-3.70;79.79;98497.94;5066243;28;20270;-73
2023/11/30 12:08:12;;;;;;;;;;;;;;;-3.69;80.09;98504.94;5061126;28;20011;-73
2023/11/30 12:10:39;;;;;;;;;;;;;;;-3.73;80.02;98517.09;5061643;28;19936;-72
2023/11/30 12:13:06;;;;;;;;;;;;;;;-3.83;82.06;98508.69;5063703;28;19928;-73
2023/11/30 12:15:32;;;;;;;;;;;;;;;-3.92;83.20;98521.47;5066881;28;19928;-73
2023/11/30 12:17:58;;;;;;;;;;;;;;;-3.92;82.69;98518.81;5045045;28;19936;-73
2023/11/30 12:20:25;;;;;;;;;;;;;;;-3.95;81.57;98527.25;5063520;28;19932;-73
2023/11/30 12:22:51;;;;;;;;;;;;;;;-3.99;80.92;98524.97;5063106;28;19933;-73
2023/11/30 12:25:17;;;;;;;;;;;;;;;-4.01;79.61;98544.94;5064149;28;19935;-73
2023/11/30 12:27:45;;;;;;;;;;;;;;;-4.02;78.82;98538.75;5062445;28;19933;-72
2023/11/30 12:30:11;;;;;;;;;;;;;;;-4.06;78.62;98532.19;5064983;28;19928;-72
2023/11/30 12:32:37;;;;;;;;;;;;;;;-4.09;78.81;98537.13;5051601;28;20206;-73
2023/11/30 12:35:04;;;;;;;;;;;;;;;-4.08;79.12;98539.59;5065367;28;20386;-73
2023/11/30 12:37:32;;;;;;;;;;;;;;;-4.06;79.36;98560.75;5068886;28;19954;-73
2023/11/30 12:39:58;;;;;;;;;;;;;;;-4.05;79.59;98538.38;5061845;28;20005;-73
2023/11/30 12:42:24;;;;;;;;;;;;;;;-4.01;80.33;98547.59;5063642;28;20414;-73